Time;durP1;ratioP1;P1;durP2;ratioP2;P2;SDS_P1;SDS_P2;PMS_P1;PMS_P2;Temp;Humidity;BMP_temperature;BMP_pressure;BME280_temperature;BME280_humidity;BME280_pressure;Samples;Min_cycle;Max_cycle;Signal;HPM_P1;HPM_P2
2022/05/29 00:01:12;;;;;;;3.50;1.53;;;14.40;58.20;;;;;;5131334;28;20469;-66
2022/05/29 00:03:39;;;;;;;3.60;1.50;;;14.30;58.20;;;;;;5131255;28;20471;-67
2022/05/29 00:06:06;;;;;;;3.27;1.40;;;14.30;58.60;;;;;;5131193;28;20473;-67
2022/05/29 00:08:38;;;;;;;4.87;1.73;;;14.20;58.80;;;;;;5131691;28;20450;-68
2022/05/29 00:11:09;;;;;;;2.53;1.40;;;14.10;59.10;;;;;;5131734;28;20474;-66
2022/05/29 00:13:36;;;;;;;6.13;1.80;;;14.10;59.30;;;;;;5131915;28;20427;-66
2022/05/29 00:16:03;;;;;;;2.00;1.40;;;14.00;59.60;;;;;;5132040;28;20454;-67
2022/05/29 00:18:31;;;;;;;1.90;0.97;;;14.00;60.10;;;;;;5132035;28;20457;-67
2022/05/29 00:21:00;;;;;;;5.47;2.00;;;14.00;60.40;;;;;;5131997;28;20471;-67
2022/05/29 00:23:28;;;;;;;2.77;1.43;;;14.00;60.50;;;;;;5130943;28;20540;-67
2022/05/29 00:25:56;;;;;;;4.03;1.50;;;14.10;60.70;;;;;;5131751;28;20447;-67
2022/05/29 00:28:24;;;;;;;6.13;1.23;;;14.10;60.70;;;;;;5130663;28;20439;-67
2022/05/29 00:30:51;;;;;;;3.53;1.30;;;14.10;60.60;;;;;;5130831;28;20465;-67
2022/05/29 00:33:18;;;;;;;9.60;1.40;;;14.10;60.40;;;;;;5131489;28;20451;-67
2022/05/29 00:35:45;;;;;;;2.63;1.27;;;14.10;60.80;;;;;;5132325;28;20446;-67
2022/05/29 00:38:13;;;;;;;6.93;1.57;;;14.10;61.10;;;;;;5130405;28;20455;-67
2022/05/29 00:40:46;;;;;;;4.60;1.53;;;14.10;61.30;;;;;;5112357;28;20534;-67
2022/05/29 00:43:13;;;;;;;2.27;1.43;;;14.10;61.30;;;;;;5131501;28;20434;-67
2022/05/29 00:45:48;;;;;;;5.20;1.50;;;14.10;61.00;;;;;;5129852;28;20934;-67
2022/05/29 00:48:17;;;;;;;2.77;1.03;;;14.00;61.10;;;;;;5129921;28;20457;-67
2022/05/29 00:50:44;;;;;;;4.63;1.30;;;13.90;61.70;;;;;;5130103;28;20475;-68
2022/05/29 00:53:14;;;;;;;2.07;1.00;;;13.90;62.40;;;;;;5130465;28;20469;-67
2022/05/29 00:55:42;;;;;;;3.17;1.20;;;13.80;62.60;;;;;;5129899;28;20447;-67
2022/05/29 00:58:09;;;;;;;4.10;1.60;;;13.80;62.70;;;;;;5130161;28;20446;-67
2022/05/29 01:00:36;;;;;;;2.90;1.30;;;13.80;63.00;;;;;;5131199;28;20492;-67
2022/05/29 01:03:06;;;;;;;6.97;1.73;;;13.80;63.10;;;;;;5130807;28;20435;-67
2022/05/29 01:05:34;;;;;;;3.00;1.43;;;13.70;63.00;;;;;;5135942;28;20435;-67
2022/05/29 01:08:05;;;;;;;2.40;1.70;;;13.60;63.40;;;;;;5130751;28;20451;-67
2022/05/29 01:10:41;;;;;;;5.07;1.67;;;13.50;63.90;;;;;;5131762;28;20474;-67
2022/05/29 01:13:15;;;;;;;6.83;2.00;;;13.50;64.50;;;;;;5131154;28;20423;-67
2022/05/29 01:15:50;;;;;;;2.60;1.60;;;13.40;64.80;;;;;;5131348;28;20906;-67
2022/05/29 01:18:29;;;;;;;5.17;1.73;;;13.40;65.50;;;;;;5132062;28;20427;-67
2022/05/29 01:21:38;;;;;;;5.00;1.40;;;13.30;65.70;;;;;;5131323;28;20473;-67
2022/05/29 01:24:22;;;;;;;4.43;1.70;;;13.30;65.80;;;;;;5132463;28;20481;-67
2022/05/29 01:27:18;;;;;;;4.70;1.90;;;13.20;65.60;;;;;;5134251;28;20435;-67
2022/05/29 01:29:58;;;;;;;7.10;1.90;;;13.20;66.80;;;;;;5133756;28;20544;-66
2022/05/29 01:32:33;;;;;;;4.37;2.20;;;13.10;67.10;;;;;;5131877;28;20435;-68
2022/05/29 01:35:08;;;;;;;2.37;1.50;;;13.10;67.40;;;;;;5130746;28;20429;-67
2022/05/29 01:37:43;;;;;;;4.50;1.93;;;13.00;67.60;;;;;;5131386;28;20446;-67
2022/05/29 01:40:17;;;;;;;2.73;1.20;;;13.00;67.60;;;;;;5130565;28;20462;-66
2022/05/29 01:42:50;;;;;;;2.90;1.60;;;13.00;67.60;;;;;;5129800;28;20419;-66
2022/05/29 01:45:23;;;;;;;4.07;1.43;;;13.10;67.70;;;;;;5130394;28;20466;-67
2022/05/29 01:47:55;;;;;;;4.97;2.00;;;13.00;68.00;;;;;;5130535;28;20450;-67
2022/05/29 01:50:27;;;;;;;3.10;1.63;;;13.00;67.60;;;;;;5130201;28;20462;-67
2022/05/29 01:53:00;;;;;;;4.53;1.83;;;13.00;67.80;;;;;;5129795;28;20438;-67
2022/05/29 01:55:34;;;;;;;4.40;1.93;;;13.00;68.30;;;;;;5130234;28;20430;-68
2022/05/29 01:58:05;;;;;;;1.53;1.43;;;12.90;68.90;;;;;;5129969;28;20431;-67
2022/05/29 02:00:33;;;;;;;5.00;2.17;;;12.90;69.30;;;;;;5130543;28;20482;-66
2022/05/29 02:03:05;;;;;;;4.33;2.00;;;12.90;69.60;;;;;;5130003;28;20435;-66
2022/05/29 02:05:38;;;;;;;2.70;1.63;;;12.80;70.00;;;;;;5129591;28;20463;-67
2022/05/29 02:08:12;;;;;;;4.10;2.03;;;12.80;70.30;;;;;;5129724;28;20435;-67
2022/05/29 02:10:44;;;;;;;2.87;2.13;;;12.80;70.60;;;;;;5128843;28;20531;-67
2022/05/29 02:13:16;;;;;;;2.03;1.63;;;12.80;70.80;;;;;;5128843;28;20431;-67
2022/05/29 02:15:49;;;;;;;3.10;1.80;;;12.70;70.50;;;;;;5129378;28;20423;-67
2022/05/29 02:18:21;;;;;;;4.97;2.70;;;12.70;70.80;;;;;;5128897;28;20421;-68
2022/05/29 02:20:52;;;;;;;3.23;2.00;;;12.70;71.30;;;;;;5129283;28;20479;-67
2022/05/29 02:23:32;;;;;;;4.43;1.70;;;12.70;71.50;;;;;;5129803;28;20438;-67
2022/05/29 02:26:02;;;;;;;3.87;1.90;;;12.60;71.70;;;;;;5129097;28;20426;-67
2022/05/29 02:28:35;;;;;;;4.27;1.90;;;12.60;72.30;;;;;;5128915;28;20443;-67
2022/05/29 02:31:16;;;;;;;2.83;1.67;;;12.50;72.50;;;;;;5128701;28;20463;-66
2022/05/29 02:33:51;;;;;;;6.07;2.20;;;12.50;72.90;;;;;;5128318;28;20449;-67
2022/05/29 02:36:29;;;;;;;5.43;2.50;;;12.50;73.60;;;;;;5128180;28;20484;-67
2022/05/29 02:39:07;;;;;;;3.20;2.20;;;12.50;74.00;;;;;;5127678;28;20427;-66
2022/05/29 02:41:46;;;;;;;6.00;2.20;;;12.40;74.30;;;;;;5127540;28;20928;-67
2022/05/29 02:44:20;;;;;;;5.73;1.90;;;12.50;74.70;;;;;;5128433;28;20458;-67
2022/05/29 02:46:53;;;;;;;8.40;2.63;;;12.40;75.20;;;;;;5127678;28;20462;-67
2022/05/29 02:49:26;;;;;;;5.70;1.80;;;12.40;75.90;;;;;;5128837;28;20431;-67
2022/05/29 02:51:56;;;;;;;5.83;2.17;;;12.40;76.20;;;;;;5128934;28;20525;-67
2022/05/29 02:54:25;;;;;;;4.57;2.50;;;12.30;76.30;;;;;;5129079;28;20812;-67
2022/05/29 02:56:52;;;;;;;5.60;2.27;;;12.30;76.50;;;;;;5128184;28;20439;-67
2022/05/29 02:59:20;;;;;;;8.83;3.63;;;12.30;76.90;;;;;;5128757;28;20447;-67
2022/05/29 03:01:55;;;;;;;5.73;3.00;;;12.30;77.00;;;;;;5128157;28;20937;-67
2022/05/29 03:04:34;;;;;;;7.20;2.60;;;12.20;77.20;;;;;;5129115;28;20473;-67
2022/05/29 03:07:09;;;;;;;3.00;2.20;;;12.20;78.20;;;;;;5128545;28;20443;-67
2022/05/29 03:09:50;;;;;;;3.17;2.20;;;12.20;78.50;;;;;;5127070;28;20481;-67
2022/05/29 03:12:26;;;;;;;3.07;2.47;;;12.30;78.90;;;;;;5127987;28;20442;-67
2022/05/29 03:15:04;;;;;;;4.57;2.40;;;12.30;79.50;;;;;;5126944;28;20427;-67
2022/05/29 03:17:41;;;;;;;6.50;2.73;;;12.30;79.50;;;;;;5127998;28;20427;-66
2022/05/29 03:20:14;;;;;;;5.63;2.63;;;12.30;79.80;;;;;;5127573;28;20455;-67
2022/05/29 03:22:52;;;;;;;3.30;2.57;;;12.30;80.40;;;;;;5127917;28;20435;-68
2022/05/29 03:25:22;;;;;;;3.50;2.30;;;12.30;80.60;;;;;;5127641;28;20473;-68
2022/05/29 03:27:51;;;;;;;7.20;2.80;;;12.30;81.20;;;;;;5127764;28;20415;-67
2022/05/29 03:30:21;;;;;;;4.10;2.93;;;12.20;81.80;;;;;;5127567;28;20474;-67
2022/05/29 03:32:53;;;;;;;5.17;2.77;;;12.20;82.20;;;;;;5128052;28;20437;-67
2022/05/29 03:35:23;;;;;;;7.83;3.53;;;12.20;82.40;;;;;;5128039;28;20770;-67
2022/05/29 03:37:51;;;;;;;5.50;2.90;;;12.20;82.90;;;;;;5128049;28;20438;-67
2022/05/29 03:40:19;;;;;;;8.93;3.40;;;12.10;82.90;;;;;;5127826;28;20535;-66
2022/05/29 03:42:45;;;;;;;4.53;2.97;;;12.20;83.00;;;;;;5127890;28;20435;-66
2022/05/29 03:45:13;;;;;;;7.37;4.37;;;12.20;83.20;;;;;;5127716;28;20486;-66
2022/05/29 03:47:40;;;;;;;5.90;2.90;;;12.20;83.60;;;;;;5128338;28;20454;-66
2022/05/29 03:50:11;;;;;;;5.90;3.23;;;12.30;83.60;;;;;;5131185;28;20467;-67
2022/05/29 03:52:38;;;;;;;5.90;2.90;;;12.40;83.60;;;;;;5131840;28;20434;-67
2022/05/29 03:55:06;;;;;;;4.50;3.43;;;12.40;82.90;;;;;;5131966;28;20443;-67
2022/05/29 03:57:33;;;;;;;7.63;2.77;;;12.40;82.40;;;;;;5130679;28;20547;-66
2022/05/29 04:00:00;;;;;;;6.07;3.00;;;12.40;82.80;;;;;;5130496;28;20477;-66
2022/05/29 04:02:27;;;;;;;10.80;3.90;;;12.40;82.10;;;;;;5130185;28;20447;-66
2022/05/29 04:04:54;;;;;;;6.27;3.87;;;12.40;82.30;;;;;;5131391;28;20486;-67
2022/05/29 04:12:03;;;;;;;5.57;3.10;;;12.40;82.60;;;;;;5130094;28;20451;-67
2022/05/29 04:12:55;;;;;;;4.57;3.00;;;12.50;82.90;;;;;;5129304;28;20434;-67
2022/05/29 04:15:22;;;;;;;5.10;3.13;;;12.40;82.90;;;;;;5129500;28;20449;-67
2022/05/29 04:17:49;;;;;;;7.87;3.77;;;12.40;82.60;;;;;;5130248;28;20504;-67
2022/05/29 04:20:16;;;;;;;8.13;3.93;;;12.40;83.20;;;;;;5129535;28;20471;-67
2022/05/29 04:22:44;;;;;;;6.50;3.20;;;12.40;83.90;;;;;;5129484;28;20464;-67
2022/05/29 04:25:12;;;;;;;8.70;3.37;;;12.40;84.00;;;;;;5129572;28;20479;-67
2022/05/29 04:27:38;;;;;;;9.10;3.40;;;12.50;84.20;;;;;;5131422;28;20496;-67
2022/05/29 04:30:07;;;;;;;8.20;3.77;;;12.50;84.10;;;;;;5130041;28;20455;-67
2022/05/29 04:35:18;;;;;;;8.33;3.57;;;12.50;84.00;;;;;;5130368;28;20495;-67
2022/05/29 04:37:46;;;;;;;5.70;2.97;;;12.50;84.60;;;;;;5130069;28;20446;-67
2022/05/29 04:40:14;;;;;;;5.30;3.33;;;12.50;84.30;;;;;;5129460;28;20466;-67
2022/05/29 04:42:40;;;;;;;4.90;2.90;;;12.50;84.90;;;;;;5130129;28;20447;-67
2022/05/29 04:45:08;;;;;;;6.00;3.43;;;12.50;85.10;;;;;;5129467;28;20471;-67
2022/05/29 04:47:35;;;;;;;5.17;3.47;;;12.50;85.50;;;;;;5127343;28;20458;-67
2022/05/29 04:50:02;;;;;;;7.33;3.60;;;12.40;85.60;;;;;;5129421;28;20801;-66
2022/05/29 04:52:29;;;;;;;6.50;3.53;;;12.40;85.60;;;;;;5129761;28;20450;-67
2022/05/29 04:54:57;;;;;;;5.13;3.30;;;12.40;86.00;;;;;;5129024;28;20443;-67
2022/05/29 04:57:24;;;;;;;3.77;3.20;;;12.40;85.90;;;;;;5130193;28;20451;-67
2022/05/29 04:59:51;;;;;;;13.53;3.87;;;12.50;86.00;;;;;;5128331;28;20520;-66
2022/05/29 05:02:18;;;;;;;5.47;3.93;;;12.50;86.30;;;;;;5128287;28;20476;-66
2022/05/29 05:04:46;;;;;;;5.73;3.20;;;12.50;86.80;;;;;;5127578;28;20486;-67
2022/05/29 05:07:12;;;;;;;7.83;4.20;;;12.50;87.30;;;;;;5127106;28;20804;-67
2022/05/29 05:09:39;;;;;;;6.33;3.20;;;12.50;86.90;;;;;;5127705;28;20454;-67
2022/05/29 05:12:08;;;;;;;5.13;3.63;;;12.50;87.20;;;;;;5127789;28;20447;-67
2022/05/29 05:14:36;;;;;;;7.27;4.30;;;12.50;87.40;;;;;;5128083;28;20450;-67
2022/05/29 05:17:03;;;;;;;10.43;3.33;;;12.60;87.60;;;;;;5128092;28;20514;-67
2022/05/29 05:19:30;;;;;;;9.30;3.30;;;12.60;87.90;;;;;;5128000;28;20470;-67
2022/05/29 05:22:00;;;;;;;7.10;3.50;;;12.60;87.60;;;;;;5127869;28;20450;-67
2022/05/29 05:24:27;;;;;;;7.00;3.43;;;12.70;87.30;;;;;;5128983;28;20451;-67
2022/05/29 05:26:54;;;;;;;7.03;3.33;;;12.70;86.80;;;;;;5127577;28;20431;-67
2022/05/29 05:29:22;;;;;;;6.83;3.60;;;12.70;86.60;;;;;;5128135;28;20807;-67
2022/05/29 05:31:49;;;;;;;7.60;3.13;;;12.70;86.60;;;;;;5128103;28;20808;-66
2022/05/29 05:34:16;;;;;;;7.00;3.40;;;12.80;87.20;;;;;;5127343;28;20439;-66
2022/05/29 05:36:43;;;;;;;10.13;4.00;;;12.80;87.40;;;;;;5126651;28;20453;-66
2022/05/29 05:39:09;;;;;;;7.70;3.40;;;12.90;86.40;;;;;;5127229;28;20439;-67
2022/05/29 05:41:36;;;;;;;9.43;3.73;;;12.90;86.50;;;;;;5127966;28;20451;-67
2022/05/29 05:44:03;;;;;;;6.90;3.60;;;13.00;86.60;;;;;;5126427;28;20439;-67
2022/05/29 05:46:31;;;;;;;7.47;3.70;;;13.00;86.80;;;;;;5127681;28;20485;-68
2022/05/29 05:48:59;;;;;;;9.40;3.73;;;13.00;86.50;;;;;;5127983;28;20458;-67
2022/05/29 05:51:25;;;;;;;8.87;3.73;;;13.10;86.70;;;;;;5128522;28;20467;-67
2022/05/29 05:53:52;;;;;;;9.20;5.47;;;13.20;87.10;;;;;;5131330;28;20869;-67
2022/05/29 05:56:20;;;;;;;8.33;4.87;;;13.20;87.00;;;;;;5130598;28;20438;-67
2022/05/29 05:58:46;;;;;;;9.60;3.57;;;13.30;86.30;;;;;;5134362;28;20527;-67
2022/05/29 06:01:15;;;;;;;3.53;3.17;;;13.30;85.80;;;;;;5135052;28;20462;-67
2022/05/29 06:03:44;;;;;;;7.13;4.00;;;13.30;86.10;;;;;;5130106;28;20451;-67
2022/05/29 06:06:11;;;;;;;8.00;3.97;;;13.30;86.90;;;;;;5128068;28;20489;-67
2022/05/29 06:08:38;;;;;;;7.80;3.57;;;13.40;86.80;;;;;;5129772;28;20465;-67
2022/05/29 06:11:05;;;;;;;8.00;3.23;;;13.40;86.40;;;;;;5132862;28;20470;-67
2022/05/29 06:13:31;;;;;;;5.57;2.77;;;13.40;85.90;;;;;;5129500;28;20451;-67
2022/05/29 06:16:00;;;;;;;5.43;3.37;;;13.50;86.50;;;;;;5127045;28;20453;-67
2022/05/29 06:18:27;;;;;;;5.93;3.07;;;13.40;86.60;;;;;;5128770;28;20443;-67
2022/05/29 06:21:00;;;;;;;5.60;3.33;;;13.40;87.60;;;;;;5129097;28;20462;-67
2022/05/29 06:23:27;;;;;;;4.53;3.17;;;13.40;88.00;;;;;;5128319;28;20427;-67
2022/05/29 06:25:54;;;;;;;6.30;3.50;;;13.40;87.80;;;;;;5128655;28;20485;-67
2022/05/29 06:28:21;;;;;;;8.90;3.47;;;13.40;87.80;;;;;;5127655;28;20485;-67
2022/05/29 06:30:48;;;;;;;6.13;3.23;;;13.50;88.40;;;;;;5128819;28;20459;-66
2022/05/29 06:33:16;;;;;;;6.67;3.33;;;13.50;88.40;;;;;;5129894;28;20443;-66
2022/05/29 06:35:42;;;;;;;6.03;3.40;;;13.60;88.10;;;;;;5130649;28;20474;-66
2022/05/29 06:38:10;;;;;;;4.20;3.40;;;13.60;87.60;;;;;;5129404;28;20447;-66
2022/05/29 06:40:42;;;;;;;4.87;3.47;;;13.70;87.90;;;;;;5128837;28;20470;-66
2022/05/29 06:43:09;;;;;;;7.27;3.77;;;13.70;88.50;;;;;;5129160;28;20431;-66
2022/05/29 06:45:36;;;;;;;6.80;2.90;;;13.80;88.40;;;;;;5126228;28;20485;-66
2022/05/29 06:48:02;;;;;;;7.13;3.40;;;13.90;88.30;;;;;;5126242;28;20470;-67
2022/05/29 06:50:29;;;;;;;5.90;3.20;;;13.90;87.70;;;;;;5125137;28;20463;-66
2022/05/29 06:52:56;;;;;;;7.30;2.80;;;13.90;87.80;;;;;;5125676;28;20442;-66
2022/05/29 06:55:25;;;;;;;4.20;3.17;;;14.00;87.50;;;;;;5126263;28;20949;-66
2022/05/29 06:57:52;;;;;;;4.70;3.20;;;14.00;87.50;;;;;;5127994;28;20519;-67
2022/05/29 07:08:39;;;;;;;5.60;2.80;;;14.40;87.00;;;;;;5127465;28;20410;-66
2022/05/29 07:11:11;;;;;;;4.07;2.50;;;14.60;86.80;;;;;;5127180;28;20467;-67
2022/05/29 07:13:38;;;;;;;4.33;3.20;;;14.70;85.00;;;;;;5129650;28;20480;-67
2022/05/29 07:16:06;;;;;;;5.40;3.07;;;14.80;84.60;;;;;;5128916;28;20443;-67
2022/05/29 07:18:33;;;;;;;7.50;3.17;;;14.90;84.00;;;;;;5129428;28;20443;-67
2022/05/29 07:21:02;;;;;;;4.00;2.90;;;14.90;82.30;;;;;;5129454;28;20462;-67
2022/05/29 07:23:29;;;;;;;6.17;2.90;;;14.90;82.00;;;;;;5130094;28;20455;-67
2022/05/29 07:25:56;;;;;;;4.00;3.07;;;14.90;82.80;;;;;;5133723;28;20479;-67
2022/05/29 07:28:24;;;;;;;5.77;2.67;;;14.80;83.10;;;;;;5132880;28;20457;-67
2022/05/29 07:30:52;;;;;;;4.40;3.10;;;14.80;82.70;;;;;;5133074;28;20477;-67
2022/05/29 07:33:20;;;;;;;4.17;2.93;;;14.80;84.10;;;;;;5132374;28;20450;-67
2022/05/29 07:35:46;;;;;;;8.97;3.07;;;14.80;84.30;;;;;;5131534;28;20450;-67
2022/05/29 07:38:13;;;;;;;4.77;2.73;;;14.80;83.60;;;;;;5132287;28;20502;-66
2022/05/29 07:40:40;;;;;;;6.90;2.90;;;14.90;84.10;;;;;;5131374;28;20469;-66
2022/05/29 07:43:18;;;;;;;4.00;2.63;;;15.00;83.50;;;;;;5131543;28;20455;-66
2022/05/29 07:45:46;;;;;;;3.03;2.70;;;15.10;83.10;;;;;;5130662;28;20491;-66
2022/05/29 07:48:14;;;;;;;4.87;3.00;;;15.30;83.20;;;;;;5131941;28;20468;-66
2022/05/29 07:50:41;;;;;;;5.13;2.87;;;15.30;81.50;;;;;;5133511;28;20469;-66
2022/05/29 07:53:08;;;;;;;4.80;3.10;;;15.40;80.20;;;;;;5133416;28;20771;-66
2022/05/29 07:55:36;;;;;;;4.07;2.90;;;15.30;80.20;;;;;;5130919;28;20442;-66
2022/05/29 07:58:03;;;;;;;3.10;2.47;;;15.20;81.20;;;;;;5130857;28;20885;-67
2022/05/29 08:00:30;;;;;;;5.43;2.97;;;15.30;80.70;;;;;;5131246;28;20497;-67
2022/05/29 08:02:58;;;;;;;3.87;2.67;;;15.40;80.40;;;;;;5131905;28;20450;-67
2022/05/29 08:05:26;;;;;;;8.70;3.67;;;15.40;80.50;;;;;;5131228;28;20443;-67
2022/05/29 08:07:53;;;;;;;5.23;2.90;;;15.30;80.50;;;;;;5131088;28;20447;-67
2022/05/29 08:10:23;;;;;;;4.07;3.17;;;15.40;80.60;;;;;;5131865;28;20479;-67
2022/05/29 08:12:49;;;;;;;7.27;2.60;;;15.60;81.00;;;;;;5130532;28;20443;-67
2022/05/29 08:15:16;;;;;;;5.37;3.13;;;15.80;80.20;;;;;;5131460;28;20435;-68
2022/05/29 08:17:43;;;;;;;7.00;2.40;;;16.00;78.50;;;;;;5130145;28;20938;-68
2022/05/29 08:20:14;;;;;;;4.03;2.33;;;16.10;76.40;;;;;;5129832;28;20489;-68
2022/05/29 08:22:41;;;;;;;6.40;2.87;;;16.20;76.70;;;;;;5131331;28;20431;-68
2022/05/29 08:30:41;;;;;;;8.50;2.60;;;16.50;72.60;;;;;;5130918;28;20491;-68
2022/05/29 08:33:11;;;;;;;7.50;2.03;;;16.70;68.70;;;;;;5131845;28;20453;-67
2022/05/29 08:35:40;;;;;;;5.57;2.30;;;17.20;70.00;;;;;;5130968;28;20423;-67
2022/05/29 08:38:08;;;;;;;3.63;2.13;;;17.70;68.60;;;;;;5131767;28;20419;-67
2022/05/29 08:40:42;;;;;;;4.10;2.00;;;18.10;64.90;;;;;;5131155;28;20536;-67
2022/05/29 08:43:13;;;;;;;3.83;1.90;;;18.20;64.30;;;;;;5131730;28;20426;-67
2022/05/29 08:45:41;;;;;;;7.37;2.37;;;18.10;62.70;;;;;;5131448;28;20454;-67
2022/05/29 08:48:08;;;;;;;6.57;2.23;;;17.90;63.40;;;;;;5132138;28;20455;-67
2022/05/29 08:50:47;;;;;;;6.17;2.13;;;17.70;63.20;;;;;;5133054;28;20463;-67
2022/05/29 08:53:27;;;;;;;7.53;2.47;;;17.60;64.20;;;;;;5132748;28;20457;-67
2022/05/29 08:55:59;;;;;;;3.40;1.70;;;17.50;65.10;;;;;;5132350;28;20514;-67
2022/05/29 08:58:35;;;;;;;6.27;3.13;;;17.60;65.40;;;;;;5130990;28;20890;-67
2022/05/29 09:01:17;;;;;;;5.40;2.27;;;17.60;64.70;;;;;;5130564;28;20488;-67
2022/05/29 09:03:54;;;;;;;4.93;2.07;;;17.50;63.80;;;;;;5130719;28;20442;-67
2022/05/29 09:06:27;;;;;;;4.93;2.40;;;17.40;64.40;;;;;;5130995;28;20524;-67
2022/05/29 09:09:01;;;;;;;5.40;2.00;;;17.30;65.70;;;;;;5130259;28;20435;-67
2022/05/29 09:11:32;;;;;;;4.77;1.90;;;17.40;65.70;;;;;;5131360;28;20431;-67
2022/05/29 09:14:09;;;;;;;5.00;1.83;;;17.50;63.90;;;;;;5131216;28;20442;-67
2022/05/29 09:16:42;;;;;;;7.40;2.23;;;17.40;62.60;;;;;;5131518;28;20791;-68
2022/05/29 09:19:15;;;;;;;2.20;1.63;;;17.50;62.70;;;;;;5131339;28;20431;-68
2022/05/29 09:21:52;;;;;;;7.17;2.30;;;17.50;62.30;;;;;;5131407;28;20420;-68
2022/05/29 09:24:29;;;;;;;3.63;1.80;;;17.50;62.50;;;;;;5130765;28;20438;-67
2022/05/29 09:26:56;;;;;;;4.73;2.20;;;17.50;62.80;;;;;;5131723;28;20478;-67
2022/05/29 09:29:23;;;;;;;4.30;1.80;;;17.40;62.70;;;;;;5131191;28;20884;-67
2022/05/29 09:31:50;;;;;;;4.00;1.80;;;17.50;63.40;;;;;;5131807;28;20424;-67
2022/05/29 09:34:16;;;;;;;2.97;1.90;;;17.60;63.90;;;;;;5129884;28;20447;-68
2022/05/29 09:36:55;;;;;;;3.27;1.37;;;17.80;64.30;;;;;;5130788;28;20492;-68
2022/05/29 09:39:27;;;;;;;3.93;1.73;;;17.90;63.10;;;;;;5130074;28;20454;-68
2022/05/29 09:42:08;;;;;;;4.63;1.73;;;18.00;61.50;;;;;;5130148;28;20437;-68
2022/05/29 09:44:34;;;;;;;3.00;1.87;;;18.10;60.80;;;;;;5128967;28;20442;-68
2022/05/29 09:49:42;;;;;;;2.40;1.20;;;18.30;59.30;;;;;;5128873;28;20953;-68
2022/05/29 09:52:14;;;;;;;3.90;1.70;;;18.30;58.80;;;;;;5128755;28;20454;-68
2022/05/29 09:54:45;;;;;;;6.83;1.97;;;18.40;59.00;;;;;;5129139;28;20431;-67
2022/05/29 09:57:21;;;;;;;6.23;1.97;;;18.40;58.70;;;;;;5129655;28;20423;-67
2022/05/29 09:59:51;;;;;;;5.53;2.00;;;18.40;58.90;;;;;;5111985;28;20467;-67
2022/05/29 10:02:27;;;;;;;4.90;1.80;;;18.20;59.80;;;;;;5123579;28;20450;-65
2022/05/29 10:04:56;;;;;;;5.77;2.43;;;18.10;61.30;;;;;;5119730;28;20418;-64
2022/05/29 10:07:34;;;;;;;7.87;2.50;;;18.00;63.70;;;;;;5120555;28;20479;-65
2022/05/29 10:10:04;;;;;;;5.77;2.00;;;17.80;67.10;;;;;;5125004;28;20475;-66
2022/05/29 10:12:38;;;;;;;4.57;2.07;;;17.70;69.20;;;;;;5123935;28;20458;-66
2022/05/29 10:15:10;;;;;;;3.50;1.63;;;17.60;69.40;;;;;;5125452;28;20430;-66
2022/05/29 10:17:38;;;;;;;4.00;1.93;;;17.50;71.80;;;;;;5127891;28;20427;-67
2022/05/29 10:20:27;;;;;;;3.40;2.07;;;17.60;74.00;;;;;;5127277;28;20479;-67
2022/05/29 10:22:55;;;;;;;2.60;1.70;;;17.90;76.30;;;;;;5127302;28;20437;-67
2022/05/29 10:25:25;;;;;;;2.60;1.43;;;18.20;77.40;;;;;;5127752;28;20426;-67
2022/05/29 10:27:55;;;;;;;5.57;2.10;;;18.60;76.00;;;;;;5128262;28;20501;-67
2022/05/29 10:30:37;;;;;;;3.10;1.77;;;19.50;74.60;;;;;;5132711;28;20473;-67
2022/05/29 10:33:08;;;;;;;2.63;1.30;;;20.40;71.60;;;;;;5133808;28;20447;-67
2022/05/29 10:35:37;;;;;;;3.80;1.73;;;20.70;68.40;;;;;;5130672;28;20511;-67
2022/05/29 10:38:22;;;;;;;2.30;1.37;;;20.70;64.90;;;;;;5129023;28;20450;-67
2022/05/29 10:40:51;;;;;;;2.00;1.40;;;20.60;64.70;;;;;;5129426;28;20467;-68
2022/05/29 10:43:38;;;;;;;4.73;1.30;;;20.40;62.50;;;;;;5129169;28;20450;-67
2022/05/29 10:46:07;;;;;;;2.87;1.97;;;20.20;62.30;;;;;;5129265;28;20431;-67
2022/05/29 10:48:56;;;;;;;1.93;1.37;;;20.10;63.60;;;;;;5129297;28;20461;-67
2022/05/29 10:51:26;;;;;;;4.73;1.43;;;20.20;63.80;;;;;;5128219;28;20470;-67
2022/05/29 10:54:17;;;;;;;6.03;2.27;;;20.50;63.60;;;;;;5128789;28;20435;-68
2022/05/29 10:56:59;;;;;;;4.00;1.43;;;20.90;62.60;;;;;;5129647;28;20426;-68
2022/05/29 10:59:56;;;;;;;1.83;1.13;;;21.10;59.80;;;;;;5131913;28;20473;-67
2022/05/29 11:05:32;;;;;;;2.97;1.20;;;22.00;57.40;;;;;;5113490;28;20519;-67
2022/05/29 11:08:18;;;;;;;0.93;0.80;;;22.00;56.10;;;;;;5135159;28;20870;-67
2022/05/29 11:11:04;;;;;;;1.60;0.80;;;22.00;56.20;;;;;;5134537;28;20469;-67
2022/05/29 11:13:50;;;;;;;2.30;0.70;;;21.90;56.00;;;;;;5132674;28;20453;-67
2022/05/29 11:16:25;;;;;;;1.33;0.70;;;21.70;55.70;;;;;;5133554;28;20848;-67
2022/05/29 11:19:22;;;;;;;2.20;0.97;;;21.60;54.90;;;;;;5132642;28;20854;-67
2022/05/29 11:21:59;;;;;;;1.77;0.87;;;21.60;56.00;;;;;;5133187;28;20453;-67
2022/05/29 11:24:49;;;;;;;1.93;0.60;;;21.80;56.00;;;;;;5136487;28;20427;-67
2022/05/29 11:27:37;;;;;;;1.20;0.53;;;22.00;54.60;;;;;;5133360;28;20476;-67
2022/05/29 11:30:11;;;;;;;1.20;0.80;;;22.20;53.10;;;;;;5134244;28;20519;-67
2022/05/29 11:32:56;;;;;;;2.03;0.90;;;22.40;53.60;;;;;;5133725;28;20438;-67
2022/05/29 11:35:40;;;;;;;1.57;0.93;;;22.40;53.10;;;;;;5134828;28;20431;-69
2022/05/29 11:38:50;;;;;;;0.83;0.63;;;22.60;51.10;;;;;;5133777;28;20426;-68
2022/05/29 11:41:22;;;;;;;1.57;0.67;;;23.00;49.70;;;;;;5030636;28;20482;-68
2022/05/29 11:43:58;;;;;;;0.93;0.90;;;23.70;49.40;;;;;;5122455;28;20461;-68
2022/05/29 11:52:26;;;;;;;1.20;0.60;;;25.70;41.80;;;;;;5133210;28;20425;-68
2022/05/29 11:55:01;;;;;;;2.07;0.77;;;25.80;43.30;;;;;;5131836;28;20446;-68
2022/05/29 11:57:35;;;;;;;2.70;0.87;;;25.90;42.00;;;;;;5132802;28;20836;-69
2022/05/29 12:00:09;;;;;;;4.20;0.83;;;26.60;42.50;;;;;;5131831;28;20902;-69
2022/05/29 12:02:43;;;;;;;1.17;0.80;;;27.00;39.30;;;;;;5132713;28;20438;-69
2022/05/29 12:05:22;;;;;;;3.87;1.43;;;26.70;39.30;;;;;;5131512;28;20438;-69
2022/05/29 12:07:56;;;;;;;2.30;1.50;;;26.20;40.30;;;;;;5130220;28;20470;-68
2022/05/29 12:10:24;;;;;;;1.53;1.03;;;25.70;41.80;;;;;;5126316;28;20462;-68
2022/05/29 12:12:57;;;;;;;2.93;1.13;;;25.10;44.00;;;;;;5128942;28;20457;-67
2022/05/29 12:15:26;;;;;;;1.80;1.20;;;24.80;45.70;;;;;;5130796;28;20439;-67
2022/05/29 12:17:57;;;;;;;2.10;0.90;;;24.70;45.70;;;;;;5128590;28;20443;-67
2022/05/29 12:20:34;;;;;;;1.27;0.70;;;24.60;46.80;;;;;;5128645;28;20543;-67
2022/05/29 12:23:07;;;;;;;1.90;0.90;;;24.60;46.60;;;;;;5130130;28;20435;-67
2022/05/29 12:25:37;;;;;;;2.30;0.70;;;24.60;47.70;;;;;;5130934;28;20427;-67
2022/05/29 12:28:08;;;;;;;1.23;0.70;;;24.60;47.50;;;;;;5131132;28;20474;-67
2022/05/29 12:30:40;;;;;;;1.17;0.80;;;24.70;47.00;;;;;;5131143;28;20466;-67
2022/05/29 12:33:14;;;;;;;0.97;0.50;;;24.60;45.60;;;;;;5132857;28;20447;-67
2022/05/29 12:35:51;;;;;;;1.67;0.77;;;24.50;46.30;;;;;;5132605;28;20505;-68
2022/05/29 12:38:36;;;;;;;1.47;0.70;;;24.30;46.70;;;;;;5131597;28;20435;-68
2022/05/29 12:41:18;;;;;;;2.10;1.00;;;24.00;45.00;;;;;;5131084;28;20474;-68
2022/05/29 12:44:34;;;;;;;1.30;0.90;;;23.40;47.30;;;;;;5131040;28;20513;-68
2022/05/29 12:47:19;;;;;;;0.70;0.60;;;22.70;48.80;;;;;;5131717;28;20665;-68
2022/05/29 12:50:05;;;;;;;1.30;0.40;;;22.00;49.30;;;;;;5131764;28;20500;-68
2022/05/29 12:52:49;;;;;;;1.80;0.40;;;21.20;49.50;;;;;;5131580;28;20431;-68
2022/05/29 12:55:32;;;;;;;0.60;0.47;;;20.50;51.80;;;;;;5132198;28;20484;-68
2022/05/29 12:58:13;;;;;;;3.27;0.70;;;19.90;53.60;;;;;;5132932;28;20419;-68
2022/05/29 13:01:04;;;;;;;0.87;0.47;;;19.50;54.70;;;;;;5130378;28;20469;-68
2022/05/29 13:04:04;;;;;;;1.37;0.50;;;19.30;55.60;;;;;;5131831;28;20902;-68
2022/05/29 13:06:49;;;;;;;0.70;0.40;;;19.10;55.80;;;;;;5088458;28;20457;-68
2022/05/29 13:09:52;;;;;;;0.70;0.43;;;19.10;56.40;;;;;;5131241;28;20427;-68
2022/05/29 13:12:23;;;;;;;1.10;0.40;;;19.40;56.50;;;;;;5130995;28;20450;-68
2022/05/29 13:14:54;;;;;;;0.47;0.43;;;19.80;55.40;;;;;;5130971;28;20435;-68
2022/05/29 13:17:25;;;;;;;0.50;0.40;;;20.10;54.20;;;;;;5131355;28;20601;-68
2022/05/29 13:20:02;;;;;;;0.70;0.47;;;20.40;55.10;;;;;;5131628;28;20463;-68
2022/05/29 13:22:53;;;;;;;1.93;0.43;;;20.80;54.90;;;;;;5131106;28;20488;-68
2022/05/29 13:25:23;;;;;;;1.03;0.60;;;21.30;51.50;;;;;;5126951;28;20461;-68
2022/05/29 13:27:51;;;;;;;0.50;0.40;;;22.20;50.10;;;;;;5131708;28;20490;-68
2022/05/29 13:30:46;;;;;;;1.07;0.50;;;23.40;48.30;;;;;;5130643;28;20467;-68
2022/05/29 13:33:44;;;;;;;1.90;0.77;;;24.90;43.20;;;;;;5131264;28;20427;-68
2022/05/29 13:37:09;;;;;;;0.87;0.60;;;25.90;42.10;;;;;;5079589;28;20438;-68
2022/05/29 13:40:00;;;;;;;0.87;0.67;;;26.00;41.60;;;;;;5131279;28;20459;-68
2022/05/29 13:42:48;;;;;;;2.10;0.80;;;25.50;41.40;;;;;;5131468;28;20431;-68
2022/05/29 13:45:39;;;;;;;1.43;0.70;;;24.90;43.20;;;;;;5131129;28;20451;-68